Montezuma, Kansas
Current Conditions -  °F | °C
As of 9:54 PM on Friday 24 Oct 2014 (Local Time) from KGCK Reporting Station
Clear Clear  
Wind Chill: 63°   Ceiling: Unl
Heat Index: 63°   Visibility: 10mi
Dew Point: 44°   Wind: 7mph
Humidity: 50%   Direction: 150°SSE
Pressure: 30.07"   Gusts: NA
Location:  37.6°N, 100.44°W
Report Text: KGCK 250254Z AUTO 15006KT 10SM CLR 17/07 A3007 RMK AO2 SLP166 T01720067 51013
Loading
Personal Weather Stations






























Interactive Weather Map
Tropical Storm Tracking
New forecast layout! Learn more

10-Day Weather Forecast

Advertisements
Track Severe Weather on mobile